Time;durP1;ratioP1;P1;durP2;ratioP2;P2;SDS_P1;SDS_P2;PMS_P1;PMS_P2;Temp;Humidity;BMP_temperature;BMP_pressure;BME280_temperature;BME280_humidity;BME280_pressure;Samples;Min_cycle;Max_cycle;Signal;HPM_P1;HPM_P2
2021/07/16 00:01:19;;;;;;;;;;;;;;;;;;2140385;66;1940;-68
2021/07/16 00:03:44;;;;;;;;;;;;;;;;;;2140549;67;1144;-68
2021/07/16 00:06:09;;;;;;;;;;;;;;;;;;2140813;67;1128;-69
2021/07/16 00:08:35;;;;;;;;;;;;;;;;;;2140387;67;1213;-68
2021/07/16 00:11:00;;;;;;;;;;;;;;;;;;2140662;67;1048;-68
2021/07/16 00:13:25;;;;;;;;;;;;;;;;;;2140310;59;1518;-68
2021/07/16 00:15:50;;;;;;;;;;;;;;;;;;2140573;59;1247;-68
2021/07/16 00:18:15;;;;;;;;;;;;;;;;;;2140545;67;1214;-69
2021/07/16 00:20:44;;;;;;;;;;;;;;;;;;2140436;67;2077;-69
2021/07/16 00:23:09;;;;;;;;;;;;;;;;;;2140619;59;1297;-68
2021/07/16 00:25:34;;;;;;;;;;;;;;;;;;2140404;67;1070;-69
2021/07/16 00:27:59;;;;;;;;;;;;;;;;;;2140535;67;1273;-68
2021/07/16 00:30:24;;;;;;;;;;;;;;;;;;2140553;67;1215;-68
2021/07/16 00:32:50;;;;;;;;;;;;;;;;;;2140553;62;1109;-69
2021/07/16 00:35:15;;;;;;;;;;;;;;;;;;2140567;67;1087;-69
2021/07/16 00:37:40;;;;;;;;;;;;;;;;;;2140042;67;1256;-69
2021/07/16 00:40:07;;;;;;;;;;;;;;;;;;2139663;67;1990;-68
2021/07/16 00:42:32;;;;;;;;;;;;;;;;;;2140332;67;1179;-69
2021/07/16 00:44:57;;;;;;;;;;;;;;;;;;2140380;67;1135;-68
2021/07/16 00:47:22;;;;;;;;;;;;;;;;;;2140618;59;1167;-69
2021/07/16 00:49:48;;;;;;;;;;;;;;;;;;2140940;66;1266;-67
2021/07/16 00:52:13;;;;;;;;;;;;;;;;;;2140343;67;1067;-68
2021/07/16 00:54:38;;;;;;;;;;;;;;;;;;2140382;67;1289;-69
2021/07/16 00:57:05;;;;;;;;;;;;;;;;;;2140205;67;1057;-68
2021/07/16 00:59:30;;;;;;;;;;;;;;;;;;2140157;59;1301;-68
2021/07/16 01:01:56;;;;;;;;;;;;;;;;;;2140173;67;1912;-68
2021/07/16 01:04:22;;;;;;;;;;;;;;;;;;2140348;67;1316;-68
2021/07/16 01:06:47;;;;;;;;;;;;;;;;;;2140193;67;1195;-68
2021/07/16 01:09:13;;;;;;;;;;;;;;;;;;2140281;67;1281;-68
2021/07/16 01:11:38;;;;;;;;;;;;;;;;;;2140411;59;1301;-68
2021/07/16 01:14:04;;;;;;;;;;;;;;;;;;2140248;67;1101;-68
2021/07/16 01:16:29;;;;;;;;;;;;;;;;;;2139153;59;1187;-67
2021/07/16 01:18:54;;;;;;;;;;;;;;;;;;2140382;67;1174;-68
2021/07/16 01:21:21;;;;;;;;;;;;;;;;;;2140209;67;1999;-69
2021/07/16 01:23:46;;;;;;;;;;;;;;;;;;2139685;59;1286;-68
2021/07/16 01:26:11;;;;;;;;;;;;;;;;;;2140231;67;1203;-68
2021/07/16 01:28:37;;;;;;;;;;;;;;;;;;2140331;67;1274;-68
2021/07/16 01:31:03;;;;;;;;;;;;;;;;;;2140160;67;1231;-67
2021/07/16 01:33:29;;;;;;;;;;;;;;;;;;2140252;67;1188;-69
2021/07/16 01:35:54;;;;;;;;;;;;;;;;;;2140186;67;1170;-68
2021/07/16 01:38:19;;;;;;;;;;;;;;;;;;2139932;67;1217;-68
2021/07/16 01:40:46;;;;;;;;;;;;;;;;;;2140292;67;1925;-68
2021/07/16 01:43:11;;;;;;;;;;;;;;;;;;2139818;67;1164;-69
2021/07/16 01:45:38;;;;;;;;;;;;;;;;;;2140482;67;1186;-68
2021/07/16 01:48:04;;;;;;;;;;;;;;;;;;2140393;59;1392;-69
2021/07/16 01:50:30;;;;;;;;;;;;;;;;;;2140572;66;1044;-68
2021/07/16 01:52:56;;;;;;;;;;;;;;;;;;2140372;67;1184;-68
2021/07/16 01:55:22;;;;;;;;;;;;;;;;;;2138504;67;1196;-69
2021/07/16 01:57:48;;;;;;;;;;;;;;;;;;2140451;59;1209;-68
2021/07/16 02:00:15;;;;;;;;;;;;;;;;;;2152434;53;1948;-70
2021/07/16 02:02:50;;;;;;;;;;;;;;;;;;2147687;59;1117;-70
2021/07/16 02:05:16;;;;;;;;;;;;;;;;;;2148802;66;1193;-70
2021/07/16 02:07:42;;;;;;;;;;;;;;;;;;2147821;59;1121;-70
2021/07/16 02:10:07;;;;;;;;;;;;;;;;;;2146639;66;1268;-69
2021/07/16 02:12:32;;;;;;;;;;;;;;;;;;2145875;59;1354;-70
2021/07/16 02:14:58;;;;;;;;;;;;;;;;;;2145707;59;1271;-70
2021/07/16 02:17:23;;;;;;;;;;;;;;;;;;2145729;59;1196;-70
2021/07/16 02:19:48;;;;;;;;;;;;;;;;;;2145396;66;1921;-70
2021/07/16 02:22:13;;;;;;;;;;;;;;;;;;2145778;66;1149;-69
2021/07/16 02:24:38;;;;;;;;;;;;;;;;;;2144620;59;1503;-70
2021/07/16 02:27:05;;;;;;;;;;;;;;;;;;2141144;66;1148;-69
2021/07/16 02:29:31;;;;;;;;;;;;;;;;;;2146035;66;1270;-70
2021/07/16 02:31:56;;;;;;;;;;;;;;;;;;2140590;67;1271;-70
2021/07/16 02:34:21;;;;;;;;;;;;;;;;;;2144235;66;1200;-70
2021/07/16 02:36:48;;;;;;;;;;;;;;;;;;2140334;67;1095;-69
2021/07/16 02:39:13;;;;;;;;;;;;;;;;;;2146792;66;1271;-71
2021/07/16 02:41:38;;;;;;;;;;;;;;;;;;2145288;66;1923;-70
2021/07/16 02:44:03;;;;;;;;;;;;;;;;;;2146680;66;1163;-71
2021/07/16 02:46:28;;;;;;;;;;;;;;;;;;2145487;66;1111;-69
2021/07/16 02:48:53;;;;;;;;;;;;;;;;;;2144541;59;1383;-71
2021/07/16 02:51:19;;;;;;;;;;;;;;;;;;2145308;66;1223;-69
2021/07/16 02:53:44;;;;;;;;;;;;;;;;;;2146350;66;1152;-70
2021/07/16 02:56:09;;;;;;;;;;;;;;;;;;2146187;66;1219;-69
2021/07/16 02:58:34;;;;;;;;;;;;;;;;;;2145356;59;1218;-70
2021/07/16 03:00:59;;;;;;;;;;;;;;;;;;2144394;66;1927;-69
2021/07/16 03:03:26;;;;;;;;;;;;;;;;;;2145888;66;1216;-70
2021/07/16 03:05:51;;;;;;;;;;;;;;;;;;2144995;66;1235;-70
2021/07/16 03:08:16;;;;;;;;;;;;;;;;;;2146269;66;1272;-70
2021/07/16 03:10:43;;;;;;;;;;;;;;;;;;2144742;66;1088;-70
2021/07/16 03:13:12;;;;;;;;;;;;;;;;;;2146521;59;1354;-71
2021/07/16 03:15:37;;;;;;;;;;;;;;;;;;2144307;59;1271;-69
2021/07/16 03:18:03;;;;;;;;;;;;;;;;;;2145933;66;1219;-68
2021/07/16 03:20:30;;;;;;;;;;;;;;;;;;2144392;66;1961;-68
2021/07/16 03:22:55;;;;;;;;;;;;;;;;;;2145012;66;1274;-68
2021/07/16 03:25:21;;;;;;;;;;;;;;;;;;2145847;66;1163;-67
2021/07/16 03:27:47;;;;;;;;;;;;;;;;;;2145474;66;1167;-68
2021/07/16 03:30:13;;;;;;;;;;;;;;;;;;2146063;66;1236;-68
2021/07/16 03:32:39;;;;;;;;;;;;;;;;;;2146252;66;1278;-69
2021/07/16 03:35:05;;;;;;;;;;;;;;;;;;2146418;59;1149;-69
2021/07/16 03:37:30;;;;;;;;;;;;;;;;;;2146002;66;1127;-67
2021/07/16 03:39:55;;;;;;;;;;;;;;;;;;2146135;66;1987;-68
2021/07/16 03:42:21;;;;;;;;;;;;;;;;;;2146314;59;1226;-67
2021/07/16 03:44:47;;;;;;;;;;;;;;;;;;2145832;66;1232;-67
2021/07/16 03:47:13;;;;;;;;;;;;;;;;;;2145691;59;1239;-68
2021/07/16 03:49:38;;;;;;;;;;;;;;;;;;2144091;66;1221;-68
2021/07/16 03:52:03;;;;;;;;;;;;;;;;;;2145490;66;1520;-67
2021/07/16 03:54:28;;;;;;;;;;;;;;;;;;2145907;66;1167;-68
2021/07/16 03:56:54;;;;;;;;;;;;;;;;;;2146075;66;1124;-69
2021/07/16 03:59:19;;;;;;;;;;;;;;;;;;2145452;58;1221;-68
2021/07/16 04:01:47;;;;;;;;;;;;;;;;;;2144192;66;1990;-69
2021/07/16 04:04:12;;;;;;;;;;;;;;;;;;2145606;66;1103;-69
2021/07/16 04:06:37;;;;;;;;;;;;;;;;;;2145594;66;1141;-68
2021/07/16 04:11:46;;;;;;;;;;;;;;;;;;2146423;59;1284;-70
2021/07/16 04:14:11;;;;;;;;;;;;;;;;;;2145995;66;1212;-68
2021/07/16 04:16:36;;;;;;;;;;;;;;;;;;2145893;58;1333;-70
2021/07/16 04:19:02;;;;;;;;;;;;;;;;;;2146175;66;1225;-68
2021/07/16 04:21:27;;;;;;;;;;;;;;;;;;2145842;66;1991;-68
2021/07/16 04:23:52;;;;;;;;;;;;;;;;;;2146253;58;1497;-69
2021/07/16 04:26:17;;;;;;;;;;;;;;;;;;2145887;66;1197;-69
2021/07/16 04:28:42;;;;;;;;;;;;;;;;;;2146050;66;1277;-69
2021/07/16 04:31:07;;;;;;;;;;;;;;;;;;2146103;66;1150;-69
2021/07/16 04:33:33;;;;;;;;;;;;;;;;;;2145929;66;1162;-70
2021/07/16 04:35:58;;;;;;;;;;;;;;;;;;2145848;66;1224;-69
2021/07/16 04:38:23;;;;;;;;;;;;;;;;;;2145627;66;1208;-70
2021/07/16 04:40:48;;;;;;;;;;;;;;;;;;2143936;66;1936;-69
2021/07/16 04:43:13;;;;;;;;;;;;;;;;;;2146512;66;1174;-71
2021/07/16 04:45:39;;;;;;;;;;;;;;;;;;2145268;66;1167;-69
2021/07/16 04:48:05;;;;;;;;;;;;;;;;;;2145793;59;1220;-70
2021/07/16 04:50:30;;;;;;;;;;;;;;;;;;2143987;66;1233;-70
2021/07/16 04:52:55;;;;;;;;;;;;;;;;;;2146613;66;1084;-70
2021/07/16 04:55:21;;;;;;;;;;;;;;;;;;2145831;66;1056;-69
2021/07/16 04:57:46;;;;;;;;;;;;;;;;;;2142750;59;1576;-70
2021/07/16 05:00:12;;;;;;;;;;;;;;;;;;2145199;58;1979;-70
2021/07/16 05:02:37;;;;;;;;;;;;;;;;;;2143971;66;1421;-70
2021/07/16 05:05:03;;;;;;;;;;;;;;;;;;2146349;66;1207;-69
2021/07/16 05:07:28;;;;;;;;;;;;;;;;;;2142641;59;1322;-72
2021/07/16 05:09:53;;;;;;;;;;;;;;;;;;2146401;66;1253;-69
2021/07/16 05:12:19;;;;;;;;;;;;;;;;;;2147365;59;1344;-72
2021/07/16 05:14:44;;;;;;;;;;;;;;;;;;2145769;66;1170;-70
2021/07/16 05:17:09;;;;;;;;;;;;;;;;;;2145223;59;1517;-70
2021/07/16 05:19:34;;;;;;;;;;;;;;;;;;2145942;66;1278;-70
2021/07/16 05:22:00;;;;;;;;;;;;;;;;;;2144695;66;1937;-70
2021/07/16 05:24:26;;;;;;;;;;;;;;;;;;2140844;59;1612;-70
2021/07/16 05:26:51;;;;;;;;;;;;;;;;;;2145377;66;1128;-71
2021/07/16 05:29:16;;;;;;;;;;;;;;;;;;2145741;66;1213;-70
2021/07/16 05:31:43;;;;;;;;;;;;;;;;;;2145630;66;1164;-70
2021/07/16 05:34:08;;;;;;;;;;;;;;;;;;2145907;66;1215;-70
2021/07/16 05:36:33;;;;;;;;;;;;;;;;;;2144980;66;1246;-71
2021/07/16 05:39:04;;;;;;;;;;;;;;;;;;2146442;66;1281;-70
2021/07/16 05:41:29;;;;;;;;;;;;;;;;;;2144983;66;1931;-70
2021/07/16 05:43:54;;;;;;;;;;;;;;;;;;2145972;66;1166;-70
2021/07/16 05:46:19;;;;;;;;;;;;;;;;;;2145376;59;1273;-70
2021/07/16 05:48:46;;;;;;;;;;;;;;;;;;2144746;59;1303;-70
2021/07/16 05:51:12;;;;;;;;;;;;;;;;;;2144140;59;1150;-71
2021/07/16 05:53:37;;;;;;;;;;;;;;;;;;2145508;66;1231;-70
2021/07/16 05:56:03;;;;;;;;;;;;;;;;;;2145256;66;1221;-72
2021/07/16 05:58:28;;;;;;;;;;;;;;;;;;2145213;58;1174;-71
2021/07/16 06:00:55;;;;;;;;;;;;;;;;;;2144353;66;1991;-70
2021/07/16 06:03:20;;;;;;;;;;;;;;;;;;2146296;66;1243;-72
2021/07/16 06:05:45;;;;;;;;;;;;;;;;;;2145872;66;1150;-70
2021/07/16 06:08:10;;;;;;;;;;;;;;;;;;2144836;66;1156;-71
2021/07/16 06:10:35;;;;;;;;;;;;;;;;;;2146189;66;1221;-71
2021/07/16 06:13:00;;;;;;;;;;;;;;;;;;2145174;66;1214;-72
2021/07/16 06:15:26;;;;;;;;;;;;;;;;;;2145400;59;1295;-70
2021/07/16 06:17:51;;;;;;;;;;;;;;;;;;2146440;66;1091;-71
2021/07/16 06:20:16;;;;;;;;;;;;;;;;;;2140159;67;1941;-72
2021/07/16 06:22:42;;;;;;;;;;;;;;;;;;2141312;59;1339;-70
2021/07/16 06:25:08;;;;;;;;;;;;;;;;;;2145964;66;1089;-71
2021/07/16 06:27:33;;;;;;;;;;;;;;;;;;2144738;66;1234;-71
2021/07/16 06:29:59;;;;;;;;;;;;;;;;;;2145645;66;1213;-71
2021/07/16 06:32:25;;;;;;;;;;;;;;;;;;2145008;66;1155;-71
2021/07/16 06:34:50;;;;;;;;;;;;;;;;;;2143551;66;1227;-71
2021/07/16 06:37:15;;;;;;;;;;;;;;;;;;2143700;66;1217;-72
2021/07/16 06:39:41;;;;;;;;;;;;;;;;;;2145332;66;1264;-70
2021/07/16 06:42:06;;;;;;;;;;;;;;;;;;2145197;66;1940;-71
2021/07/16 06:44:31;;;;;;;;;;;;;;;;;;2145280;66;1079;-70
2021/07/16 06:46:56;;;;;;;;;;;;;;;;;;2145607;59;1349;-71
2021/07/16 06:49:26;;;;;;;;;;;;;;;;;;2143506;60;1200;-72
2021/07/16 06:51:52;;;;;;;;;;;;;;;;;;2145433;66;1140;-70
2021/07/16 06:54:17;;;;;;;;;;;;;;;;;;2142616;59;1667;-70
2021/07/16 06:56:42;;;;;;;;;;;;;;;;;;2143899;66;1243;-71
2021/07/16 06:59:09;;;;;;;;;;;;;;;;;;2144001;66;1302;-70
2021/07/16 07:01:34;;;;;;;;;;;;;;;;;;2143470;66;1990;-71
2021/07/16 07:04:00;;;;;;;;;;;;;;;;;;2143419;59;1737;-70
2021/07/16 07:06:26;;;;;;;;;;;;;;;;;;2144123;66;1350;-71
2021/07/16 07:08:51;;;;;;;;;;;;;;;;;;2144691;66;1747;-71
2021/07/16 07:11:16;;;;;;;;;;;;;;;;;;2146031;66;1546;-73
2021/07/16 07:13:41;;;;;;;;;;;;;;;;;;2146622;59;1530;-70
2021/07/16 07:16:07;;;;;;;;;;;;;;;;;;2145484;59;1264;-71
2021/07/16 07:18:32;;;;;;;;;;;;;;;;;;2145270;66;1245;-71
2021/07/16 07:20:57;;;;;;;;;;;;;;;;;;2146475;66;1921;-70
2021/07/16 07:23:22;;;;;;;;;;;;;;;;;;2144045;59;1358;-71
2021/07/16 07:25:48;;;;;;;;;;;;;;;;;;2143003;66;1647;-72
2021/07/16 07:28:13;;;;;;;;;;;;;;;;;;2143766;66;1260;-73
2021/07/16 07:30:39;;;;;;;;;;;;;;;;;;2144892;66;1249;-71
2021/07/16 07:33:04;;;;;;;;;;;;;;;;;;2144518;66;2751;-71
2021/07/16 07:35:33;;;;;;;;;;;;;;;;;;2141883;59;2384;-72
2021/07/16 07:38:02;;;;;;;;;;;;;;;;;;2137714;59;1880;-71
2021/07/16 07:40:27;;;;;;;;;;;;;;;;;;2144478;66;1937;-71
2021/07/16 07:42:53;;;;;;;;;;;;;;;;;;2143622;66;2030;-71
2021/07/16 07:45:18;;;;;;;;;;;;;;;;;;2144482;66;1366;-73
2021/07/16 07:47:43;;;;;;;;;;;;;;;;;;2146463;66;1155;-71
2021/07/16 07:50:12;;;;;;;;;;;;;;;;;;2146233;66;1345;-72
2021/07/16 07:52:37;;;;;;;;;;;;;;;;;;2145979;66;1290;-71
2021/07/16 07:55:02;;;;;;;;;;;;;;;;;;2144881;66;1161;-72
2021/07/16 07:57:27;;;;;;;;;;;;;;;;;;2146614;66;1175;-71
2021/07/16 07:59:52;;;;;;;;;;;;;;;;;;2145907;53;3550;-68
2021/07/16 08:02:18;;;;;;;;;;;;;;;;;;2140798;59;1837;-68
2021/07/16 08:04:43;;;;;;;;;;;;;;;;;;2141248;59;1292;-68
2021/07/16 08:07:08;;;;;;;;;;;;;;;;;;2142422;66;1061;-71
2021/07/16 08:09:33;;;;;;;;;;;;;;;;;;2139416;59;1455;-71
2021/07/16 08:12:00;;;;;;;;;;;;;;;;;;2141263;59;1327;-70
2021/07/16 08:14:25;;;;;;;;;;;;;;;;;;2141562;66;1240;-69
2021/07/16 08:16:51;;;;;;;;;;;;;;;;;;2144130;59;1485;-70
2021/07/16 08:19:17;;;;;;;;;;;;;;;;;;2141725;66;1193;-69
2021/07/16 08:21:46;;;;;;;;;;;;;;;;;;2142665;66;1921;-68
2021/07/16 08:24:12;;;;;;;;;;;;;;;;;;2139517;59;1312;-69
2021/07/16 08:26:37;;;;;;;;;;;;;;;;;;2136122;59;2047;-71
2021/07/16 08:29:02;;;;;;;;;;;;;;;;;;2139616;66;1315;-70
2021/07/16 08:31:28;;;;;;;;;;;;;;;;;;2139845;67;1066;-70
2021/07/16 08:33:53;;;;;;;;;;;;;;;;;;2139861;59;1325;-68
2021/07/16 08:36:18;;;;;;;;;;;;;;;;;;2140000;59;2085;-71
2021/07/16 08:38:46;;;;;;;;;;;;;;;;;;2141945;66;1231;-70
2021/07/16 08:41:11;;;;;;;;;;;;;;;;;;2141341;66;1941;-70
2021/07/16 08:43:39;;;;;;;;;;;;;;;;;;2139952;59;2199;-69
2021/07/16 08:46:05;;;;;;;;;;;;;;;;;;2139922;59;1845;-71
2021/07/16 08:48:30;;;;;;;;;;;;;;;;;;2139731;59;1998;-70
2021/07/16 08:50:57;;;;;;;;;;;;;;;;;;2140129;59;1819;-67
2021/07/16 08:53:23;;;;;;;;;;;;;;;;;;2141737;59;1648;-67
2021/07/16 08:55:48;;;;;;;;;;;;;;;;;;2141071;66;1322;-67
2021/07/16 08:58:14;;;;;;;;;;;;;;;;;;2141451;66;1600;-69
2021/07/16 09:00:39;;;;;;;;;;;;;;;;;;2139354;59;1982;-67
2021/07/16 09:03:05;;;;;;;;;;;;;;;;;;2140737;66;1534;-67
2021/07/16 09:05:50;;;;;;;;;;;;;;;;;;2140583;66;1271;-66
2021/07/16 09:08:19;;;;;;;;;;;;;;;;;;2141710;66;1773;-68
2021/07/16 09:10:49;;;;;;;;;;;;;;;;;;2141324;66;1274;-69
2021/07/16 09:13:15;;;;;;;;;;;;;;;;;;2139700;59;1363;-68
2021/07/16 09:15:46;;;;;;;;;;;;;;;;;;2142192;59;1300;-69
2021/07/16 09:18:12;;;;;;;;;;;;;;;;;;2142521;66;1215;-69
2021/07/16 09:20:37;;;;;;;;;;;;;;;;;;2141053;66;1928;-69
2021/07/16 09:23:07;;;;;;;;;;;;;;;;;;2141452;59;1406;-67
2021/07/16 09:25:32;;;;;;;;;;;;;;;;;;2141092;66;1167;-68
2021/07/16 09:27:57;;;;;;;;;;;;;;;;;;2141678;66;1059;-69
2021/07/16 09:30:26;;;;;;;;;;;;;;;;;;2141520;66;1212;-68
2021/07/16 09:32:59;;;;;;;;;;;;;;;;;;2141986;66;1486;-68
2021/07/16 09:35:29;;;;;;;;;;;;;;;;;;2138912;59;1178;-71
2021/07/16 09:37:56;;;;;;;;;;;;;;;;;;2141883;66;1176;-68
2021/07/16 09:40:22;;;;;;;;;;;;;;;;;;2141778;66;1982;-70
2021/07/16 09:42:48;;;;;;;;;;;;;;;;;;2141452;66;1158;-67
2021/07/16 09:45:13;;;;;;;;;;;;;;;;;;2141750;66;1216;-69
2021/07/16 09:47:39;;;;;;;;;;;;;;;;;;2141363;66;1174;-68
2021/07/16 09:50:12;;;;;;;;;;;;;;;;;;2140675;66;1728;-68
2021/07/16 09:52:37;;;;;;;;;;;;;;;;;;2142205;66;1275;-69
2021/07/16 09:55:10;;;;;;;;;;;;;;;;;;2142226;66;1065;-68
2021/07/16 09:57:39;;;;;;;;;;;;;;;;;;2142116;66;1219;-68
2021/07/16 10:00:18;;;;;;;;;;;;;;;;;;2140833;59;1927;-67
2021/07/16 10:02:45;;;;;;;;;;;;;;;;;;2139149;66;1141;-67
2021/07/16 10:05:10;;;;;;;;;;;;;;;;;;2142079;66;1195;-66
2021/07/16 10:07:36;;;;;;;;;;;;;;;;;;2142004;66;1220;-66
2021/07/16 10:10:01;;;;;;;;;;;;;;;;;;2142572;66;1261;-67
2021/07/16 10:12:27;;;;;;;;;;;;;;;;;;2140466;59;1269;-68
2021/07/16 10:14:54;;;;;;;;;;;;;;;;;;2138213;67;1244;-68
2021/07/16 10:17:19;;;;;;;;;;;;;;;;;;2139276;59;1578;-66
2021/07/16 10:19:44;;;;;;;;;;;;;;;;;;2142355;66;1284;-68
2021/07/16 10:22:10;;;;;;;;;;;;;;;;;;2141116;67;1988;-67
2021/07/16 10:24:37;;;;;;;;;;;;;;;;;;2141212;59;1690;-68
2021/07/16 10:27:04;;;;;;;;;;;;;;;;;;2141589;67;1163;-69
2021/07/16 10:29:37;;;;;;;;;;;;;;;;;;2141591;66;1260;-68
2021/07/16 10:32:03;;;;;;;;;;;;;;;;;;2141455;67;1184;-66
2021/07/16 10:34:28;;;;;;;;;;;;;;;;;;2140388;67;1156;-70
2021/07/16 10:36:57;;;;;;;;;;;;;;;;;;2137951;67;1243;-67
2021/07/16 10:39:37;;;;;;;;;;;;;;;;;;2142215;66;1220;-68
2021/07/16 10:42:22;;;;;;;;;;;;;;;;;;2140787;66;2867;-68
2021/07/16 10:44:47;;;;;;;;;;;;;;;;;;2140812;59;1307;-66
2021/07/16 10:47:31;;;;;;;;;;;;;;;;;;2142186;66;1421;-65
2021/07/16 10:49:56;;;;;;;;;;;;;;;;;;2142443;66;1355;-64
2021/07/16 10:52:39;;;;;;;;;;;;;;;;;;2140356;67;1157;-64
2021/07/16 10:55:05;;;;;;;;;;;;;;;;;;2139561;59;2073;-64
2021/07/16 10:57:37;;;;;;;;;;;;;;;;;;2140475;66;1353;-64
2021/07/16 11:00:03;;;;;;;;;;;;;;;;;;2139809;59;1925;-64
2021/07/16 11:02:41;;;;;;;;;;;;;;;;;;2138844;66;1149;-66
2021/07/16 11:05:25;;;;;;;;;;;;;;;;;;2142898;66;1224;-63
2021/07/16 11:07:50;;;;;;;;;;;;;;;;;;2141513;66;1235;-63
2021/07/16 11:10:34;;;;;;;;;;;;;;;;;;2142739;66;1215;-63
2021/07/16 11:13:19;;;;;;;;;;;;;;;;;;2141195;59;1235;-64
2021/07/16 11:15:44;;;;;;;;;;;;;;;;;;2141178;59;1929;-66
2021/07/16 11:18:12;;;;;;;;;;;;;;;;;;2141864;66;1197;-64
2021/07/16 11:20:39;;;;;;;;;;;;;;;;;;2142542;66;1932;-65
2021/07/16 11:23:05;;;;;;;;;;;;;;;;;;2140622;59;1417;-64
2021/07/16 11:25:30;;;;;;;;;;;;;;;;;;2142272;66;1152;-65
2021/07/16 11:27:56;;;;;;;;;;;;;;;;;;2143658;66;1109;-67
2021/07/16 11:30:21;;;;;;;;;;;;;;;;;;2141721;66;1274;-66
2021/07/16 11:32:47;;;;;;;;;;;;;;;;;;2142217;66;1192;-66
2021/07/16 11:35:13;;;;;;;;;;;;;;;;;;2141582;66;1609;-68
2021/07/16 11:37:40;;;;;;;;;;;;;;;;;;2141859;66;1163;-66
2021/07/16 11:40:06;;;;;;;;;;;;;;;;;;2139482;66;1930;-67
2021/07/16 11:42:32;;;;;;;;;;;;;;;;;;2141782;66;1057;-67
2021/07/16 11:44:57;;;;;;;;;;;;;;;;;;2142638;66;1240;-66
2021/07/16 11:47:27;;;;;;;;;;;;;;;;;;2142202;66;1132;-68
2021/07/16 11:49:59;;;;;;;;;;;;;;;;;;2143333;66;1310;-68
2021/07/16 11:52:26;;;;;;;;;;;;;;;;;;2143277;66;1161;-69
2021/07/16 11:54:52;;;;;;;;;;;;;;;;;;2142169;66;1177;-68
2021/07/16 11:57:17;;;;;;;;;;;;;;;;;;2142118;66;1170;-67
2021/07/16 11:59:50;;;;;;;;;;;;;;;;;;2141639;59;1231;-66
2021/07/16 12:02:19;;;;;;;;;;;;;;;;;;2140151;66;1927;-67
2021/07/16 12:04:45;;;;;;;;;;;;;;;;;;2142181;66;1157;-66
2021/07/16 12:07:11;;;;;;;;;;;;;;;;;;2142449;66;1200;-68
2021/07/16 12:09:44;;;;;;;;;;;;;;;;;;2142080;66;1219;-67
2021/07/16 12:12:11;;;;;;;;;;;;;;;;;;2141651;59;1321;-67
2021/07/16 12:15:05;;;;;;;;;;;;;;;;;;2142036;66;1319;-67
2021/07/16 12:17:31;;;;;;;;;;;;;;;;;;2140987;66;1367;-67
2021/07/16 12:19:57;;;;;;;;;;;;;;;;;;2142204;59;1255;-67
2021/07/16 12:22:23;;;;;;;;;;;;;;;;;;2141891;59;1924;-67
2021/07/16 12:24:49;;;;;;;;;;;;;;;;;;2142051;66;1066;-67
2021/07/16 12:27:15;;;;;;;;;;;;;;;;;;2141113;66;1156;-66
2021/07/16 12:29:40;;;;;;;;;;;;;;;;;;2141144;66;1271;-68
2021/07/16 12:32:06;;;;;;;;;;;;;;;;;;2139805;59;1635;-68
2021/07/16 12:34:32;;;;;;;;;;;;;;;;;;2140477;66;1348;-70
2021/07/16 12:37:07;;;;;;;;;;;;;;;;;;2142254;66;1172;-67
2021/07/16 12:39:32;;;;;;;;;;;;;;;;;;2140203;66;1209;-67
2021/07/16 12:42:14;;;;;;;;;;;;;;;;;;2140203;59;1996;-67
2021/07/16 12:44:39;;;;;;;;;;;;;;;;;;2141474;66;1078;-66
2021/07/16 12:47:04;;;;;;;;;;;;;;;;;;2142086;66;1212;-68
2021/07/16 12:49:30;;;;;;;;;;;;;;;;;;2140699;66;1262;-67
2021/07/16 12:52:05;;;;;;;;;;;;;;;;;;2140983;66;1421;-68
2021/07/16 12:54:30;;;;;;;;;;;;;;;;;;2140424;66;1093;-70
2021/07/16 12:56:56;;;;;;;;;;;;;;;;;;2140136;66;1302;-68
2021/07/16 12:59:27;;;;;;;;;;;;;;;;;;2140187;59;1259;-68
2021/07/16 13:01:53;;;;;;;;;;;;;;;;;;2137842;66;1963;-69
2021/07/16 13:04:20;;;;;;;;;;;;;;;;;;2141216;66;1344;-69
2021/07/16 13:06:46;;;;;;;;;;;;;;;;;;2142429;66;1201;-68
2021/07/16 13:09:14;;;;;;;;;;;;;;;;;;2141024;59;1170;-67
2021/07/16 13:11:39;;;;;;;;;;;;;;;;;;2142176;59;1299;-67
2021/07/16 13:14:05;;;;;;;;;;;;;;;;;;2141666;59;1247;-68
2021/07/16 13:16:30;;;;;;;;;;;;;;;;;;2141187;59;1323;-67
2021/07/16 13:18:57;;;;;;;;;;;;;;;;;;2141534;66;1287;-66
2021/07/16 13:21:22;;;;;;;;;;;;;;;;;;2141615;66;1919;-66
2021/07/16 13:23:47;;;;;;;;;;;;;;;;;;2139968;59;1369;-67
2021/07/16 13:26:13;;;;;;;;;;;;;;;;;;2141262;59;1073;-68
2021/07/16 13:28:39;;;;;;;;;;;;;;;;;;2141657;66;1204;-67
2021/07/16 13:31:05;;;;;;;;;;;;;;;;;;2142037;66;1890;-68
2021/07/16 13:33:30;;;;;;;;;;;;;;;;;;2141557;66;1062;-67
2021/07/16 13:35:55;;;;;;;;;;;;;;;;;;2141308;59;1853;-67
2021/07/16 13:38:21;;;;;;;;;;;;;;;;;;2140871;66;1172;-68
2021/07/16 13:40:47;;;;;;;;;;;;;;;;;;2141037;66;1921;-67
2021/07/16 13:43:12;;;;;;;;;;;;;;;;;;2142118;66;1180;-67
2021/07/16 13:45:38;;;;;;;;;;;;;;;;;;2142079;66;1187;-69
2021/07/16 13:48:03;;;;;;;;;;;;;;;;;;2142646;66;1311;-69
2021/07/16 13:50:28;;;;;;;;;;;;;;;;;;2141171;66;1260;-68
2021/07/16 13:52:53;;;;;;;;;;;;;;;;;;2141716;66;1109;-68
2021/07/16 13:55:18;;;;;;;;;;;;;;;;;;2141195;66;1159;-67
2021/07/16 13:57:44;;;;;;;;;;;;;;;;;;2140639;66;1068;-68
2021/07/16 14:00:09;;;;;;;;;;;;;;;;;;2141492;59;2118;-69
2021/07/16 14:02:34;;;;;;;;;;;;;;;;;;2139949;59;1407;-67
2021/07/16 14:04:59;;;;;;;;;;;;;;;;;;2139354;66;1534;-68
2021/07/16 14:07:25;;;;;;;;;;;;;;;;;;2139825;67;1296;-69
2021/07/16 14:09:51;;;;;;;;;;;;;;;;;;2140222;59;1365;-68
2021/07/16 14:12:17;;;;;;;;;;;;;;;;;;2140315;59;1414;-68
2021/07/16 14:14:46;;;;;;;;;;;;;;;;;;2140128;66;1012;-68
2021/07/16 14:17:11;;;;;;;;;;;;;;;;;;2140890;66;1574;-68
2021/07/16 14:19:36;;;;;;;;;;;;;;;;;;2141559;66;1206;-68
2021/07/16 14:22:02;;;;;;;;;;;;;;;;;;2141530;66;1933;-69
2021/07/16 14:24:27;;;;;;;;;;;;;;;;;;2139787;59;1614;-68
2021/07/16 14:26:53;;;;;;;;;;;;;;;;;;2141459;67;1185;-71
2021/07/16 14:29:19;;;;;;;;;;;;;;;;;;2142186;67;1494;-68
2021/07/16 14:31:45;;;;;;;;;;;;;;;;;;2141725;67;1161;-69
2021/07/16 14:34:10;;;;;;;;;;;;;;;;;;2141955;59;1147;-68
2021/07/16 14:36:35;;;;;;;;;;;;;;;;;;2142106;67;1064;-68
2021/07/16 14:39:01;;;;;;;;;;;;;;;;;;2141591;67;1239;-68
2021/07/16 14:41:26;;;;;;;;;;;;;;;;;;2142499;67;1920;-69
2021/07/16 14:43:51;;;;;;;;;;;;;;;;;;2141256;67;1235;-70
2021/07/16 14:46:16;;;;;;;;;;;;;;;;;;2142672;67;1187;-68
2021/07/16 14:48:42;;;;;;;;;;;;;;;;;;2140847;66;1633;-68
2021/07/16 14:51:07;;;;;;;;;;;;;;;;;;2142037;67;1600;-68
2021/07/16 14:53:32;;;;;;;;;;;;;;;;;;2141644;67;1242;-69
2021/07/16 14:55:57;;;;;;;;;;;;;;;;;;2142296;67;1168;-69
2021/07/16 14:58:23;;;;;;;;;;;;;;;;;;2141929;67;1160;-68
2021/07/16 15:00:48;;;;;;;;;;;;;;;;;;2139994;67;1917;-68
2021/07/16 15:03:13;;;;;;;;;;;;;;;;;;2139399;67;1585;-68
2021/07/16 15:05:39;;;;;;;;;;;;;;;;;;2142394;67;1147;-68
2021/07/16 15:08:04;;;;;;;;;;;;;;;;;;2142181;67;1291;-68
2021/07/16 15:10:30;;;;;;;;;;;;;;;;;;2141471;67;1274;-69
2021/07/16 15:12:57;;;;;;;;;;;;;;;;;;2138968;59;1271;-69
2021/07/16 15:15:22;;;;;;;;;;;;;;;;;;2141255;59;1311;-69
2021/07/16 15:17:47;;;;;;;;;;;;;;;;;;2140933;67;1209;-67
2021/07/16 15:20:12;;;;;;;;;;;;;;;;;;2142045;67;1984;-69
2021/07/16 15:22:38;;;;;;;;;;;;;;;;;;2140001;59;1358;-68
2021/07/16 15:25:04;;;;;;;;;;;;;;;;;;2141495;66;1160;-68
2021/07/16 15:27:29;;;;;;;;;;;;;;;;;;2142376;66;1180;-68
2021/07/16 15:29:54;;;;;;;;;;;;;;;;;;2141982;66;1230;-67
2021/07/16 15:32:20;;;;;;;;;;;;;;;;;;2142638;66;1162;-67
2021/07/16 15:34:46;;;;;;;;;;;;;;;;;;2141138;66;1329;-67
2021/07/16 15:37:11;;;;;;;;;;;;;;;;;;2142369;66;1231;-67
2021/07/16 15:39:36;;;;;;;;;;;;;;;;;;2142125;66;1225;-68
2021/07/16 15:42:01;;;;;;;;;;;;;;;;;;2142337;66;1928;-67
2021/07/16 15:44:29;;;;;;;;;;;;;;;;;;2142402;66;1318;-68
2021/07/16 15:46:54;;;;;;;;;;;;;;;;;;2142263;66;1236;-70
2021/07/16 15:49:19;;;;;;;;;;;;;;;;;;2141373;66;1735;-67
2021/07/16 15:51:44;;;;;;;;;;;;;;;;;;2140746;66;1135;-68
2021/07/16 15:54:10;;;;;;;;;;;;;;;;;;2141841;66;1113;-67
2021/07/16 15:56:35;;;;;;;;;;;;;;;;;;2142065;66;1199;-67
2021/07/16 15:59:00;;;;;;;;;;;;;;;;;;2142062;59;1258;-67
2021/07/16 16:01:26;;;;;;;;;;;;;;;;;;2141790;66;1975;-69
2021/07/16 16:03:51;;;;;;;;;;;;;;;;;;2135406;67;1389;-69
2021/07/16 16:06:17;;;;;;;;;;;;;;;;;;2141182;59;1171;-68
2021/07/16 16:08:42;;;;;;;;;;;;;;;;;;2140357;66;1210;-68
2021/07/16 16:11:08;;;;;;;;;;;;;;;;;;2141845;66;1207;-67
2021/07/16 16:13:33;;;;;;;;;;;;;;;;;;2139552;59;1314;-69
2021/07/16 16:15:59;;;;;;;;;;;;;;;;;;2140947;59;1355;-70
2021/07/16 16:18:24;;;;;;;;;;;;;;;;;;2141838;66;1176;-70
2021/07/16 16:20:49;;;;;;;;;;;;;;;;;;2141950;59;1927;-68
2021/07/16 16:23:15;;;;;;;;;;;;;;;;;;2141477;66;1421;-68
2021/07/16 16:25:40;;;;;;;;;;;;;;;;;;2141713;66;1092;-68
2021/07/16 16:28:06;;;;;;;;;;;;;;;;;;2141639;66;1219;-67
2021/07/16 16:30:31;;;;;;;;;;;;;;;;;;2142081;66;1214;-67
2021/07/16 16:32:56;;;;;;;;;;;;;;;;;;2141624;66;1148;-68
2021/07/16 16:35:21;;;;;;;;;;;;;;;;;;2141976;59;1096;-68
2021/07/16 16:37:46;;;;;;;;;;;;;;;;;;2141803;66;1070;-69
2021/07/16 16:40:12;;;;;;;;;;;;;;;;;;2141652;59;1193;-68
2021/07/16 16:42:38;;;;;;;;;;;;;;;;;;2141696;66;2007;-68
2021/07/16 16:45:12;;;;;;;;;;;;;;;;;;2142014;66;1148;-69
2021/07/16 16:47:37;;;;;;;;;;;;;;;;;;2141958;66;1211;-68
2021/07/16 16:50:04;;;;;;;;;;;;;;;;;;2140849;66;1452;-68
2021/07/16 16:52:29;;;;;;;;;;;;;;;;;;2140972;66;1158;-70
2021/07/16 16:54:54;;;;;;;;;;;;;;;;;;2142669;66;1173;-68
2021/07/16 16:57:20;;;;;;;;;;;;;;;;;;2142088;66;1006;-68
2021/07/16 16:59:45;;;;;;;;;;;;;;;;;;2141576;66;1223;-68